createdAt,value
2019-06-08T00:01:53.524Z,15.40
2019-06-08T00:04:20.731Z,15.30
2019-06-08T00:06:47.267Z,15.20
2019-06-08T00:09:14.716Z,15.20
2019-06-08T00:11:42.302Z,15.10
2019-06-08T00:14:08.995Z,15.20
2019-06-08T00:16:35.633Z,15.20
2019-06-08T00:19:04.788Z,15.20
2019-06-08T00:21:31.844Z,15.20
2019-06-08T00:23:58.744Z,15.20
2019-06-08T00:26:25.848Z,15.20
2019-06-08T00:28:53.286Z,15.30
2019-06-08T00:31:21.605Z,15.30
2019-06-08T00:33:48.820Z,15.20
2019-06-08T00:36:16.735Z,15.30
2019-06-08T00:38:43.922Z,15.30
2019-06-08T00:41:10.694Z,15.20
2019-06-08T00:43:37.942Z,15.20
2019-06-08T00:46:04.875Z,15.20
2019-06-08T00:48:32.107Z,15.10
2019-06-08T00:50:59.195Z,15.20
2019-06-08T00:53:26.022Z,15.20
2019-06-08T00:55:52.833Z,15.20
2019-06-08T00:58:20.429Z,15.10
2019-06-08T01:00:49.101Z,15.20
2019-06-08T01:03:17.519Z,15.20
2019-06-08T01:05:44.438Z,15.30
2019-06-08T01:08:13.416Z,15.20
2019-06-08T01:10:40.485Z,15.20
2019-06-08T01:13:07.446Z,15.20
2019-06-08T01:15:34.572Z,15.10
2019-06-08T01:18:04.073Z,15.00
2019-06-08T01:20:30.690Z,15.10
2019-06-08T01:22:57.607Z,15.10
2019-06-08T01:25:25.719Z,15.10
2019-06-08T01:27:52.891Z,15.20
2019-06-08T01:30:20.052Z,15.20
2019-06-08T01:32:47.158Z,15.20
2019-06-08T01:35:13.850Z,15.20
2019-06-08T01:37:40.945Z,15.20
2019-06-08T01:40:09.640Z,15.20
2019-06-08T01:42:36.376Z,15.10
2019-06-08T01:45:07.500Z,15.10
2019-06-08T01:47:34.191Z,15.10
2019-06-08T01:50:01.374Z,15.10
2019-06-08T01:52:28.964Z,15.10
2019-06-08T01:54:56.831Z,15.20
2019-06-08T01:57:23.609Z,15.10
2019-06-08T01:59:50.482Z,15.10
2019-06-08T02:02:17.296Z,15.10
2019-06-08T02:04:44.393Z,15.10
2019-06-08T02:07:11.379Z,15.10
2019-06-08T02:09:38.485Z,15.20
2019-06-08T02:12:05.259Z,15.10
2019-06-08T02:14:33.258Z,15.20
2019-06-08T02:17:00.400Z,15.10
2019-06-08T02:19:28.337Z,15.10
2019-06-08T02:21:55.242Z,15.10
2019-06-08T02:24:21.921Z,15.10
2019-06-08T02:26:49.248Z,15.10
2019-06-08T02:29:15.981Z,15.10
2019-06-08T02:31:42.877Z,15.10
2019-06-08T02:34:09.705Z,15.10
2019-06-08T02:36:37.860Z,15.00
2019-06-08T02:39:06.534Z,14.90
2019-06-08T02:41:33.270Z,14.90
2019-06-08T02:44:00.159Z,14.90
2019-06-08T02:46:28.855Z,14.90
2019-06-08T02:49:04.050Z,15.00
2019-06-08T02:51:28.780Z,14.90
2019-06-08T02:53:56.424Z,14.90
2019-06-08T02:56:25.979Z,14.80
2019-06-08T02:58:56.530Z,14.80
2019-06-08T03:01:24.304Z,14.80
2019-06-08T03:03:52.699Z,14.90
2019-06-08T03:06:19.925Z,14.80
2019-06-08T03:08:48.496Z,14.80
2019-06-08T03:11:18.557Z,14.80
2019-06-08T03:13:47.239Z,14.80
2019-06-08T03:16:14.088Z,14.80
2019-06-08T03:18:42.622Z,14.80
2019-06-08T03:21:09.817Z,14.80
2019-06-08T03:23:38.623Z,14.80
2019-06-08T03:26:05.058Z,14.80
2019-06-08T03:28:32.655Z,14.80
2019-06-08T03:30:59.933Z,14.70
2019-06-08T03:33:27.109Z,14.60
2019-06-08T03:35:57.754Z,14.60
2019-06-08T03:38:22.505Z,14.60
2019-06-08T03:40:49.575Z,14.60
2019-06-08T03:43:16.106Z,14.60
2019-06-08T03:45:43.608Z,14.60
2019-06-08T03:48:11.212Z,14.60
2019-06-08T03:50:39.554Z,14.50
2019-06-08T03:53:06.432Z,14.50
2019-06-08T03:55:33.527Z,14.60
2019-06-08T03:58:00.377Z,14.50
2019-06-08T04:00:27.320Z,14.50
2019-06-08T04:02:54.343Z,14.60
2019-06-08T04:05:21.163Z,14.60
2019-06-08T04:07:48.052Z,14.60
2019-06-08T04:10:15.120Z,14.60
2019-06-08T04:12:41.999Z,14.60
2019-06-08T04:15:09.948Z,14.40
2019-06-08T04:17:37.940Z,14.50
2019-06-08T04:20:11.287Z,14.50
2019-06-08T04:22:40.381Z,14.50
2019-06-08T04:25:08.219Z,14.40
2019-06-08T04:27:35.259Z,14.50
2019-06-08T04:30:04.955Z,14.60
2019-06-08T04:32:31.919Z,14.50
2019-06-08T04:34:58.762Z,14.50
2019-06-08T04:37:25.303Z,14.40
2019-06-08T04:39:52.291Z,14.40
2019-06-08T04:42:19.301Z,14.50
2019-06-08T04:44:46.934Z,14.50
2019-06-08T04:47:14.276Z,14.30
2019-06-08T04:49:42.850Z,14.40
2019-06-08T04:52:09.450Z,14.40
2019-06-08T04:54:38.957Z,14.40
2019-06-08T04:57:06.149Z,14.40
2019-06-08T04:59:32.803Z,14.30
2019-06-08T05:01:59.633Z,14.30
2019-06-08T05:04:26.317Z,14.30
2019-06-08T05:06:53.160Z,14.30
2019-06-08T05:09:19.765Z,14.40
2019-06-08T05:11:47.435Z,14.30
2019-06-08T05:14:14.357Z,14.30
2019-06-08T05:16:43.172Z,14.30
2019-06-08T05:19:09.871Z,14.20
2019-06-08T05:21:36.487Z,14.20
2019-06-08T05:24:05.458Z,14.10
2019-06-08T05:26:32.239Z,14.20
2019-06-08T05:28:59.103Z,14.10
2019-06-08T05:31:25.984Z,14.20
2019-06-08T05:33:53.088Z,14.20
2019-06-08T05:36:19.963Z,14.00
2019-06-08T05:38:47.639Z,13.90
2019-06-08T05:41:14.371Z,13.80
2019-06-08T05:43:41.626Z,13.80
2019-06-08T05:46:10.231Z,13.70
2019-06-08T05:48:37.257Z,13.70
2019-06-08T05:51:04.557Z,13.80
2019-06-08T05:53:31.721Z,13.70
2019-06-08T05:55:58.370Z,13.70
2019-06-08T05:58:25.138Z,13.70
2019-06-08T06:00:51.954Z,13.70
2019-06-08T06:03:18.566Z,13.80
2019-06-08T06:05:45.049Z,13.80
2019-06-08T06:08:18.997Z,13.80
2019-06-08T06:10:40.995Z,13.80
2019-06-08T06:13:07.852Z,13.70
2019-06-08T06:15:34.945Z,13.70
2019-06-08T06:18:01.610Z,13.80
2019-06-08T06:20:28.701Z,13.80
2019-06-08T06:22:58.539Z,13.90
2019-06-08T06:25:24.211Z,14.00
2019-06-08T06:27:51.802Z,13.90
2019-06-08T06:30:20.557Z,14.00
2019-06-08T06:32:47.785Z,14.00
2019-06-08T06:35:14.722Z,14.00
2019-06-08T06:37:41.812Z,14.00
2019-06-08T06:40:10.549Z,14.00
2019-06-08T06:42:39.344Z,14.00
2019-06-08T06:45:07.649Z,14.00
2019-06-08T06:47:34.550Z,14.10
2019-06-08T06:50:01.408Z,14.10
2019-06-08T06:52:28.147Z,14.20
2019-06-08T06:54:55.239Z,14.20
2019-06-08T06:57:21.981Z,14.20
2019-06-08T06:59:49.259Z,14.20
2019-06-08T07:02:16.621Z,14.20
2019-06-08T07:04:43.714Z,14.20
2019-06-08T07:07:10.567Z,14.40
2019-06-08T07:09:37.191Z,14.50
2019-06-08T07:12:04.144Z,14.50
2019-06-08T07:14:31.017Z,14.60
2019-06-08T07:16:58.304Z,14.50
2019-06-08T07:19:25.058Z,14.60
2019-06-08T07:21:53.149Z,14.40
2019-06-08T07:24:20.633Z,14.40
2019-06-08T07:26:48.275Z,14.40
2019-06-08T07:29:15.439Z,14.40
2019-06-08T07:31:42.272Z,14.50
2019-06-08T07:34:11.978Z,14.60
2019-06-08T07:36:39.010Z,14.70
2019-06-08T07:39:06.977Z,14.70
2019-06-08T07:41:33.620Z,14.70
2019-06-08T07:44:00.224Z,14.60
2019-06-08T07:46:26.770Z,14.70
2019-06-08T07:48:54.402Z,14.70
2019-06-08T07:51:23.602Z,14.80
2019-06-08T07:53:51.476Z,14.80
2019-06-08T07:56:18.709Z,14.90
2019-06-08T07:58:46.491Z,15.00
2019-06-08T08:01:13.424Z,15.00
2019-06-08T08:03:40.166Z,15.00
2019-06-08T08:06:07.997Z,15.20
2019-06-08T08:08:35.129Z,15.20
2019-06-08T08:11:02.339Z,15.20
2019-06-08T08:13:29.273Z,15.10
2019-06-08T08:15:57.677Z,15.00
2019-06-08T08:18:24.287Z,15.00
2019-06-08T08:20:51.329Z,15.00
2019-06-08T08:23:18.283Z,15.10
2019-06-08T08:25:47.303Z,15.10
2019-06-08T08:28:14.017Z,15.20
2019-06-08T08:30:41.126Z,15.30
2019-06-08T08:33:10.068Z,15.50
2019-06-08T08:35:38.113Z,15.80
2019-06-08T08:38:07.596Z,15.80
2019-06-08T08:40:34.671Z,15.90
2019-06-08T08:43:01.771Z,15.90
2019-06-08T08:45:28.638Z,16.10
2019-06-08T08:48:10.352Z,16.30
2019-06-08T08:50:24.083Z,16.20
2019-06-08T08:52:52.270Z,16.20
2019-06-08T08:55:21.612Z,16.60
2019-06-08T08:57:48.581Z,17.00
2019-06-08T09:00:18.087Z,17.10
2019-06-08T09:02:45.199Z,17.40
2019-06-08T09:05:12.466Z,17.70
2019-06-08T09:07:40.103Z,18.50
2019-06-08T09:10:08.647Z,18.50
2019-06-08T09:12:37.661Z,18.90
2019-06-08T09:15:08.342Z,19.00
2019-06-08T09:17:35.177Z,18.90
2019-06-08T09:20:03.757Z,19.00
2019-06-08T09:22:31.217Z,19.00
2019-06-08T09:25:01.205Z,19.10
2019-06-08T09:27:28.106Z,18.50
2019-06-08T09:29:57.425Z,17.80
2019-06-08T09:32:23.709Z,17.70
2019-06-08T09:34:52.914Z,17.70
2019-06-08T09:37:19.359Z,18.70
2019-06-08T09:39:48.250Z,19.10
2019-06-08T09:42:15.221Z,18.70
2019-06-08T09:44:42.074Z,18.10
2019-06-08T09:47:12.535Z,17.70
2019-06-08T09:49:38.121Z,17.60
2019-06-08T09:52:07.657Z,17.60
2019-06-08T09:54:33.990Z,17.60
2019-06-08T09:57:02.729Z,17.40
2019-06-08T09:59:29.477Z,17.40
2019-06-08T10:02:00.119Z,17.40
2019-06-08T10:04:25.647Z,17.40
2019-06-08T10:06:54.330Z,17.60
2019-06-08T10:09:21.307Z,18.10
2019-06-08T10:11:48.363Z,18.30
2019-06-08T10:14:15.288Z,18.40
2019-06-08T10:16:42.240Z,18.50
2019-06-08T10:19:10.373Z,18.50
2019-06-08T10:21:40.416Z,18.50
2019-06-08T10:24:09.238Z,18.40
2019-06-08T10:26:37.518Z,18.00
2019-06-08T10:29:06.257Z,17.90
2019-06-08T10:31:38.970Z,17.80
2019-06-08T10:34:03.528Z,17.60
2019-06-08T10:36:31.449Z,17.20
2019-06-08T10:39:01.828Z,17.20
2019-06-08T10:41:27.810Z,17.10
2019-06-08T10:43:55.058Z,17.10
2019-06-08T10:46:21.825Z,17.20
2019-06-08T10:48:49.740Z,17.20
2019-06-08T10:51:18.352Z,17.20
2019-06-08T10:53:49.356Z,17.20
2019-06-08T10:56:13.832Z,17.10
2019-06-08T10:58:40.810Z,17.10
2019-06-08T11:01:12.164Z,17.10
2019-06-08T11:03:38.674Z,17.10
2019-06-08T11:06:12.371Z,17.10
2019-06-08T11:08:39.049Z,17.20
2019-06-08T11:11:09.795Z,17.40
2019-06-08T11:13:34.897Z,17.60
2019-06-08T11:16:02.813Z,17.80
2019-06-08T11:18:30.724Z,17.90
2019-06-08T11:21:00.772Z,18.00
2019-06-08T11:23:28.764Z,18.10
2019-06-08T11:25:59.506Z,18.00
2019-06-08T11:28:24.335Z,17.90
2019-06-08T11:30:52.423Z,17.70
2019-06-08T11:33:19.416Z,17.50
2019-06-08T11:35:46.720Z,17.50
2019-06-08T11:38:13.737Z,17.60
2019-06-08T11:40:40.745Z,17.40
2019-06-08T11:43:08.630Z,17.40
2019-06-08T11:45:37.862Z,17.50
2019-06-08T11:48:04.864Z,17.70
2019-06-08T11:50:41.558Z,17.80
2019-06-08T11:53:10.514Z,17.90
2019-06-08T11:55:38.344Z,18.10
2019-06-08T11:58:09.804Z,18.10
2019-06-08T12:01:00.981Z,18.30
2019-06-08T12:03:27.659Z,18.60
2019-06-08T12:05:55.235Z,18.60
2019-06-08T12:08:22.229Z,18.70
2019-06-08T12:10:49.191Z,18.70
2019-06-08T12:13:17.692Z,18.60
2019-06-08T12:15:45.638Z,18.30
2019-06-08T12:18:12.949Z,17.90
2019-06-08T12:20:40.708Z,18.00
2019-06-08T12:23:07.929Z,18.10
2019-06-08T12:25:37.734Z,18.10
2019-06-08T12:28:04.581Z,18.20
2019-06-08T12:30:31.904Z,18.20
2019-06-08T12:32:59.040Z,18.20
2019-06-08T12:35:28.267Z,18.40
2019-06-08T12:37:54.396Z,18.60
2019-06-08T12:40:21.577Z,18.80
2019-06-08T12:42:48.489Z,18.90
2019-06-08T12:45:15.604Z,19.00
2019-06-08T12:47:42.368Z,19.20
2019-06-08T12:50:13.380Z,19.20
2019-06-08T12:52:42.993Z,19.20
2019-06-08T12:55:14.212Z,19.30
2019-06-08T12:57:36.951Z,19.10
2019-06-08T13:00:05.292Z,19.00
2019-06-08T13:02:32.277Z,19.00
2019-06-08T13:04:59.215Z,18.80
2019-06-08T13:07:28.175Z,18.70
2019-06-08T13:09:55.176Z,18.60
2019-06-08T13:12:22.003Z,18.50
2019-06-08T13:14:50.538Z,18.60
2019-06-08T13:17:20.828Z,18.70
2019-06-08T13:19:48.211Z,18.80
2019-06-08T13:22:14.902Z,18.80
2019-06-08T13:24:42.140Z,18.90
2019-06-08T13:27:13.013Z,18.80
2019-06-08T13:29:37.448Z,18.80
2019-06-08T13:32:04.629Z,19.00
2019-06-08T13:34:31.605Z,18.90
2019-06-08T13:36:58.691Z,18.80
2019-06-08T13:39:27.999Z,18.80
2019-06-08T13:41:55.060Z,18.70
2019-06-08T13:44:22.597Z,18.80
2019-06-08T13:46:49.627Z,18.70
2019-06-08T13:49:22.997Z,18.70
2019-06-08T13:51:45.472Z,18.60
2019-06-08T13:54:12.802Z,18.70
2019-06-08T13:56:39.668Z,18.80
2019-06-08T13:59:07.994Z,18.60
2019-06-08T14:01:37.416Z,18.60
2019-06-08T14:04:04.323Z,18.80
2019-06-08T14:06:31.203Z,18.70
2019-06-08T14:08:58.226Z,18.60
2019-06-08T14:11:25.282Z,18.60
2019-06-08T14:13:52.837Z,18.60
2019-06-08T14:16:21.548Z,18.50
2019-06-08T14:18:48.691Z,18.50
2019-06-08T14:21:17.216Z,18.60
2019-06-08T14:23:44.149Z,18.60
2019-06-08T14:26:11.113Z,18.70
2019-06-08T14:28:38.292Z,18.80
2019-06-08T14:31:08.134Z,18.70
2019-06-08T14:33:34.423Z,18.80
2019-06-08T14:36:01.410Z,18.80
2019-06-08T14:38:37.103Z,18.60
2019-06-08T14:40:58.930Z,18.60
2019-06-08T14:43:29.457Z,18.40
2019-06-08T14:45:54.251Z,17.90
2019-06-08T14:48:25.125Z,17.60
2019-06-08T14:50:49.576Z,17.60
2019-06-08T14:53:18.455Z,17.50
2019-06-08T14:55:45.409Z,17.40
2019-06-08T14:58:12.055Z,17.40
2019-06-08T15:00:39.139Z,17.50
2019-06-08T15:03:07.660Z,17.50
2019-06-08T15:05:34.960Z,17.70
2019-06-08T15:08:02.234Z,17.70
2019-06-08T15:10:31.009Z,17.80
2019-06-08T15:12:57.952Z,17.80
2019-06-08T15:15:25.879Z,17.80
2019-06-08T15:17:53.475Z,17.80
2019-06-08T15:20:20.311Z,17.70
2019-06-08T15:22:47.463Z,17.80
2019-06-08T15:25:14.310Z,17.90
2019-06-08T15:27:41.350Z,17.90
2019-06-08T15:30:08.366Z,18.00
2019-06-08T15:32:35.718Z,18.00
2019-06-08T15:35:05.135Z,18.10
2019-06-08T15:37:32.276Z,18.20
2019-06-08T15:39:59.505Z,18.20
2019-06-08T15:42:28.706Z,18.30
2019-06-08T15:44:59.434Z,18.30
2019-06-08T15:47:24.288Z,18.40
2019-06-08T15:49:51.520Z,18.50
2019-06-08T15:52:18.868Z,18.40
2019-06-08T15:54:48.397Z,18.60
2019-06-08T15:57:17.857Z,18.60
2019-06-08T15:59:44.746Z,18.70
2019-06-08T16:02:11.698Z,18.60
2019-06-08T16:04:39.127Z,18.50
2019-06-08T16:07:06.354Z,18.50
2019-06-08T16:09:34.255Z,18.60
2019-06-08T16:12:01.874Z,18.60
2019-06-08T16:14:29.022Z,18.50
2019-06-08T16:16:56.009Z,18.50
2019-06-08T16:19:22.973Z,18.50
2019-06-08T16:21:50.350Z,18.50
2019-06-08T16:24:17.634Z,18.50
2019-06-08T16:26:53.126Z,18.50
2019-06-08T16:29:14.835Z,18.30
2019-06-08T16:31:42.392Z,18.20
2019-06-08T16:34:09.570Z,18.30
2019-06-08T16:36:36.792Z,18.20
2019-06-08T16:39:06.677Z,18.20
2019-06-08T16:41:34.042Z,18.10
2019-06-08T16:44:01.346Z,18.20
2019-06-08T16:46:28.243Z,18.20
2019-06-08T16:48:55.423Z,18.30
2019-06-08T16:51:22.592Z,18.30
2019-06-08T16:53:49.815Z,18.40
2019-06-08T16:56:16.635Z,18.30
2019-06-08T16:58:44.124Z,18.30
2019-06-08T17:01:11.472Z,18.40
2019-06-08T17:03:39.064Z,18.20
2019-06-08T17:06:06.260Z,18.20
2019-06-08T17:08:37.039Z,18.10
2019-06-08T17:11:02.235Z,18.20
2019-06-08T17:13:29.839Z,18.20
2019-06-08T17:15:57.226Z,18.30
2019-06-08T17:18:24.571Z,18.30
2019-06-08T17:20:51.744Z,18.30
2019-06-08T17:23:18.405Z,18.30
2019-06-08T17:25:45.380Z,18.40
2019-06-08T17:28:12.488Z,18.50
2019-06-08T17:30:39.603Z,18.40
2019-06-08T17:33:06.736Z,18.40
2019-06-08T17:35:34.034Z,18.20
2019-06-08T17:38:01.592Z,18.10
2019-06-08T17:40:28.853Z,18.20
2019-06-08T17:42:57.426Z,18.20
2019-06-08T17:45:24.580Z,18.10
2019-06-08T17:47:51.933Z,17.90
2019-06-08T17:50:19.194Z,17.80
2019-06-08T17:52:47.323Z,17.90
2019-06-08T17:55:14.844Z,17.90
2019-06-08T17:57:52.691Z,17.90
2019-06-08T18:00:12.282Z,18.10
2019-06-08T18:02:41.919Z,17.80
2019-06-08T18:05:10.041Z,17.90
2019-06-08T18:07:39.043Z,18.00
2019-06-08T18:10:07.194Z,17.90
2019-06-08T18:12:36.018Z,17.90
2019-06-08T18:15:07.655Z,17.80
2019-06-08T18:17:39.134Z,17.80
2019-06-08T18:20:08.557Z,17.80
2019-06-08T18:22:39.113Z,17.90
2019-06-08T18:25:07.723Z,17.90
2019-06-08T18:27:34.670Z,17.90
2019-06-08T18:30:08.308Z,17.90
2019-06-08T18:32:30.986Z,17.80
2019-06-08T18:34:58.404Z,17.70
2019-06-08T18:37:25.626Z,17.70
2019-06-08T18:39:52.926Z,17.70
2019-06-08T18:42:20.073Z,17.60
2019-06-08T18:44:48.560Z,17.60
2019-06-08T18:47:17.670Z,17.50
2019-06-08T18:49:45.566Z,17.70
2019-06-08T18:52:13.783Z,17.70
2019-06-08T18:54:42.458Z,17.50
2019-06-08T18:57:11.358Z,17.40
2019-06-08T18:59:44.321Z,17.40
2019-06-08T19:02:09.087Z,17.30
2019-06-08T19:04:37.815Z,17.20
2019-06-08T19:07:07.708Z,17.40
2019-06-08T19:09:34.181Z,17.40
2019-06-08T19:12:01.172Z,17.30
2019-06-08T19:14:29.158Z,17.20
2019-06-08T19:16:58.075Z,17.00
2019-06-08T19:19:28.541Z,17.00
2019-06-08T19:21:54.854Z,17.00
2019-06-08T19:24:21.903Z,17.10
2019-06-08T19:26:49.154Z,16.90
2019-06-08T19:29:19.502Z,17.00
2019-06-08T19:31:49.944Z,17.00
2019-06-08T19:34:17.928Z,16.80
2019-06-08T19:36:44.368Z,16.80
2019-06-08T19:39:11.182Z,16.80
2019-06-08T19:41:41.504Z,16.80
2019-06-08T19:44:09.604Z,16.70
2019-06-08T19:46:38.171Z,16.70
2019-06-08T19:49:07.872Z,16.70
2019-06-08T19:51:33.851Z,16.60
2019-06-08T19:54:00.764Z,16.80
2019-06-08T19:56:28.739Z,16.90
2019-06-08T19:59:04.040Z,16.90
2019-06-08T20:01:27.640Z,16.90
2019-06-08T20:03:54.109Z,16.90
2019-06-08T20:06:22.189Z,16.70
2019-06-08T20:08:51.415Z,16.70
2019-06-08T20:11:17.949Z,16.60
2019-06-08T20:13:45.393Z,16.50
2019-06-08T20:16:12.839Z,16.50
2019-06-08T20:18:39.886Z,16.50
2019-06-08T20:21:10.004Z,16.50
2019-06-08T20:23:38.085Z,16.50
2019-06-08T20:26:05.119Z,16.50
2019-06-08T20:28:32.479Z,16.40
2019-06-08T20:30:59.268Z,16.40
2019-06-08T20:33:27.276Z,16.40
2019-06-08T20:35:54.846Z,16.40
2019-06-08T20:38:34.133Z,16.40
2019-06-08T20:40:50.781Z,16.50
2019-06-08T20:43:17.843Z,16.50
2019-06-08T20:45:44.639Z,16.70
2019-06-08T20:48:11.560Z,16.60
2019-06-08T20:50:38.305Z,16.50
2019-06-08T20:53:08.354Z,16.20
2019-06-08T20:55:40.035Z,16.30
2019-06-08T20:58:03.363Z,16.30
2019-06-08T21:00:30.074Z,16.20
2019-06-08T21:03:02.702Z,16.10
2019-06-08T21:05:27.709Z,16.20
2019-06-08T21:07:56.398Z,16.30
2019-06-08T21:10:24.598Z,16.30
2019-06-08T21:12:52.978Z,16.00
2019-06-08T21:15:20.049Z,16.10
2019-06-08T21:17:49.065Z,16.00
2019-06-08T21:20:17.583Z,15.90
2019-06-08T21:22:44.983Z,16.10
2019-06-08T21:25:14.279Z,16.00
2019-06-08T21:27:40.836Z,16.00
2019-06-08T21:30:19.874Z,15.90
2019-06-08T21:32:37.254Z,15.80
2019-06-08T21:35:07.492Z,15.70
2019-06-08T21:37:33.910Z,15.70
2019-06-08T21:40:03.673Z,15.70
2019-06-08T21:42:28.957Z,15.70
2019-06-08T21:44:59.410Z,15.40
2019-06-08T21:47:24.374Z,15.40
2019-06-08T21:49:51.784Z,15.50
2019-06-08T21:52:19.740Z,15.50
2019-06-08T21:54:46.347Z,15.40
2019-06-08T21:57:13.063Z,15.30
2019-06-08T21:59:39.976Z,15.40
2019-06-08T22:02:08.145Z,15.60
2019-06-08T22:04:37.233Z,15.60
2019-06-08T22:07:03.872Z,15.50
2019-06-08T22:09:30.521Z,15.60
2019-06-08T22:12:00.456Z,15.70
2019-06-08T22:14:27.322Z,15.60
2019-06-08T22:16:56.002Z,15.60
2019-06-08T22:19:24.022Z,15.70
2019-06-08T22:21:52.083Z,15.40
2019-06-08T22:24:19.475Z,15.20
2019-06-08T22:26:46.339Z,15.20
2019-06-08T22:29:13.118Z,15.20
2019-06-08T22:31:39.955Z,15.20
2019-06-08T22:34:07.753Z,15.00
2019-06-08T22:36:37.082Z,15.20
2019-06-08T22:39:07.859Z,15.10
2019-06-08T22:41:37.314Z,14.90
2019-06-08T22:44:04.329Z,14.90
2019-06-08T22:46:30.972Z,14.90
2019-06-08T22:49:01.185Z,15.00
2019-06-08T22:51:27.682Z,15.10
2019-06-08T22:53:57.240Z,15.20
2019-06-08T22:56:24.150Z,15.00
2019-06-08T22:58:50.987Z,15.00
2019-06-08T23:01:18.484Z,15.10
2019-06-08T23:03:47.429Z,15.20
2019-06-08T23:06:14.512Z,15.30
2019-06-08T23:08:41.547Z,15.40
2019-06-08T23:11:08.693Z,15.20
2019-06-08T23:13:37.619Z,15.10
2019-06-08T23:16:05.575Z,15.10
2019-06-08T23:18:32.996Z,15.00
2019-06-08T23:21:01.550Z,14.90
2019-06-08T23:23:28.615Z,14.90
2019-06-08T23:25:55.623Z,14.80
2019-06-08T23:28:22.692Z,14.90
2019-06-08T23:31:03.610Z,15.00
2019-06-08T23:33:18.932Z,15.00
2019-06-08T23:36:27.358Z,15.00
2019-06-08T23:38:17.261Z,15.00
2019-06-08T23:40:44.459Z,15.00
2019-06-08T23:43:11.506Z,15.10
2019-06-08T23:45:38.289Z,15.00
2019-06-08T23:48:04.969Z,14.70
2019-06-08T23:50:31.879Z,14.70
2019-06-08T23:52:59.496Z,14.90
2019-06-08T23:55:27.901Z,14.70
2019-06-08T23:57:54.970Z,14.80
